sensor_id;sensor_type;location;lat;lon;timestamp;temperature;humidity
20288;DHT22;10303;51.960;8.372;2023-03-24T00:00:01;15.60;99.90
20288;DHT22;10303;51.960;8.372;2023-03-24T00:02:32;15.60;99.90
20288;DHT22;10303;51.960;8.372;2023-03-24T00:05:05;15.60;99.90
20288;DHT22;10303;51.960;8.372;2023-03-24T00:07:31;15.60;99.90
20288;DHT22;10303;51.960;8.372;2023-03-24T00:09:58;15.60;99.90
20288;DHT22;10303;51.960;8.372;2023-03-24T00:12:25;15.50;99.90
20288;DHT22;10303;51.960;8.372;2023-03-24T00:14:51;15.40;99.90
20288;DHT22;10303;51.960;8.372;2023-03-24T00:17:19;15.50;99.90
20288;DHT22;10303;51.960;8.372;2023-03-24T00:19:51;15.50;99.90
20288;DHT22;10303;51.960;8.372;2023-03-24T00:22:16;15.60;99.90
20288;DHT22;10303;51.960;8.372;2023-03-24T00:24:45;15.50;99.90
20288;DHT22;10303;51.960;8.372;2023-03-24T00:27:12;15.40;99.90
20288;DHT22;10303;51.960;8.372;2023-03-24T00:29:39;15.40;99.90
20288;DHT22;10303;51.960;8.372;2023-03-24T00:32:05;15.40;99.90
20288;DHT22;10303;51.960;8.372;2023-03-24T00:34:32;15.40;99.90
20288;DHT22;10303;51.960;8.372;2023-03-24T00:37:04;15.40;99.90
20288;DHT22;10303;51.960;8.372;2023-03-24T00:39:31;15.30;99.90
20288;DHT22;10303;51.960;8.372;2023-03-24T00:41:57;15.30;99.90
20288;DHT22;10303;51.960;8.372;2023-03-24T00:44:26;15.40;99.90
20288;DHT22;10303;51.960;8.372;2023-03-24T00:46:52;15.50;99.90
20288;DHT22;10303;51.960;8.372;2023-03-24T00:49:26;15.30;99.90
20288;DHT22;10303;51.960;8.372;2023-03-24T00:52:31;15.30;99.90
20288;DHT22;10303;51.960;8.372;2023-03-24T00:55:02;15.30;99.90
20288;DHT22;10303;51.960;8.372;2023-03-24T00:57:31;15.30;99.90
20288;DHT22;10303;51.960;8.372;2023-03-24T01:00:03;15.50;99.90
20288;DHT22;10303;51.960;8.372;2023-03-24T01:02:37;15.40;99.90
20288;DHT22;10303;51.960;8.372;2023-03-24T01:05:04;15.40;99.90
20288;DHT22;10303;51.960;8.372;2023-03-24T01:07:31;15.50;99.90
20288;DHT22;10303;51.960;8.372;2023-03-24T01:09:58;15.50;99.90
20288;DHT22;10303;51.960;8.372;2023-03-24T01:12:28;15.50;99.90
20288;DHT22;10303;51.960;8.372;2023-03-24T01:14:57;15.40;99.90
20288;DHT22;10303;51.960;8.372;2023-03-24T01:17:25;15.40;99.90
20288;DHT22;10303;51.960;8.372;2023-03-24T01:19:52;15.40;99.90
20288;DHT22;10303;51.960;8.372;2023-03-24T01:22:19;15.50;99.90
20288;DHT22;10303;51.960;8.372;2023-03-24T01:24:46;15.50;99.90
20288;DHT22;10303;51.960;8.372;2023-03-24T01:27:14;15.50;99.90
20288;DHT22;10303;51.960;8.372;2023-03-24T01:29:41;15.50;99.90
20288;DHT22;10303;51.960;8.372;2023-03-24T01:32:07;15.40;99.90
20288;DHT22;10303;51.960;8.372;2023-03-24T01:34:34;15.40;99.90
20288;DHT22;10303;51.960;8.372;2023-03-24T01:37:01;15.50;99.90
20288;DHT22;10303;51.960;8.372;2023-03-24T01:39:27;15.70;99.90
20288;DHT22;10303;51.960;8.372;2023-03-24T01:41:54;15.50;99.90
20288;DHT22;10303;51.960;8.372;2023-03-24T01:46:53;15.40;99.90
20288;DHT22;10303;51.960;8.372;2023-03-24T01:49:20;15.50;99.90
20288;DHT22;10303;51.960;8.372;2023-03-24T01:51:52;15.40;99.90
20288;DHT22;10303;51.960;8.372;2023-03-24T01:54:42;15.40;99.90
20288;DHT22;10303;51.960;8.372;2023-03-24T01:59:56;15.40;99.90
20288;DHT22;10303;51.960;8.372;2023-03-24T02:03:11;15.40;99.90
20288;DHT22;10303;51.960;8.372;2023-03-24T02:05:49;15.50;99.90
20288;DHT22;10303;51.960;8.372;2023-03-24T02:08:29;15.50;99.90
20288;DHT22;10303;51.960;8.372;2023-03-24T02:11:04;15.50;99.90
20288;DHT22;10303;51.960;8.372;2023-03-24T02:13:39;15.50;99.90
20288;DHT22;10303;51.960;8.372;2023-03-24T02:23:09;15.60;99.90
20288;DHT22;10303;51.960;8.372;2023-03-24T02:45:39;15.60;99.90
20288;DHT22;10303;51.960;8.372;2023-03-24T02:48:20;15.60;99.90
20288;DHT22;10303;51.960;8.372;2023-03-24T02:51:14;15.50;99.90
20288;DHT22;10303;51.960;8.372;2023-03-24T02:54:11;15.60;99.90
20288;DHT22;10303;51.960;8.372;2023-03-24T02:57:08;15.60;99.90
20288;DHT22;10303;51.960;8.372;2023-03-24T03:00:07;15.50;99.90
20288;DHT22;10303;51.960;8.372;2023-03-24T03:03:29;15.60;99.90
20288;DHT22;10303;51.960;8.372;2023-03-24T03:08:55;15.60;99.90
20288;DHT22;10303;51.960;8.372;2023-03-24T03:11:23;15.60;99.90
20288;DHT22;10303;51.960;8.372;2023-03-24T03:13:53;15.50;99.90
20288;DHT22;10303;51.960;8.372;2023-03-24T03:16:34;15.60;99.90
20288;DHT22;10303;51.960;8.372;2023-03-24T03:19:10;15.60;99.90
20288;DHT22;10303;51.960;8.372;2023-03-24T03:21:45;15.60;99.90
20288;DHT22;10303;51.960;8.372;2023-03-24T03:26:56;15.70;99.90
20288;DHT22;10303;51.960;8.372;2023-03-24T03:29:30;15.70;99.90
20288;DHT22;10303;51.960;8.372;2023-03-24T03:32:02;15.70;99.90
20288;DHT22;10303;51.960;8.372;2023-03-24T03:40:21;15.70;99.90
20288;DHT22;10303;51.960;8.372;2023-03-24T03:42:57;15.80;99.90
20288;DHT22;10303;51.960;8.372;2023-03-24T03:45:23;15.80;99.90
20288;DHT22;10303;51.960;8.372;2023-03-24T03:47:49;15.70;99.90
20288;DHT22;10303;51.960;8.372;2023-03-24T03:50:16;15.70;99.90
20288;DHT22;10303;51.960;8.372;2023-03-24T03:52:42;15.80;99.90
20288;DHT22;10303;51.960;8.372;2023-03-24T03:55:10;15.80;99.90
20288;DHT22;10303;51.960;8.372;2023-03-24T03:57:38;15.70;99.90
20288;DHT22;10303;51.960;8.372;2023-03-24T04:00:23;15.70;99.90
20288;DHT22;10303;51.960;8.372;2023-03-24T04:06:25;15.70;99.90
20288;DHT22;10303;51.960;8.372;2023-03-24T04:09:34;15.70;99.90
20288;DHT22;10303;51.960;8.372;2023-03-24T04:18:34;15.70;99.90
20288;DHT22;10303;51.960;8.372;2023-03-24T04:27:44;15.80;99.90
20288;DHT22;10303;51.960;8.372;2023-03-24T04:36:02;15.90;99.90
20288;DHT22;10303;51.960;8.372;2023-03-24T04:38:52;15.80;99.90
20288;DHT22;10303;51.960;8.372;2023-03-24T04:41:32;15.80;99.90
20288;DHT22;10303;51.960;8.372;2023-03-24T04:44:17;16.00;99.90
20288;DHT22;10303;51.960;8.372;2023-03-24T04:47:07;15.90;99.90
20288;DHT22;10303;51.960;8.372;2023-03-24T04:49:38;16.00;99.90
20288;DHT22;10303;51.960;8.372;2023-03-24T04:52:05;16.00;99.90
20288;DHT22;10303;51.960;8.372;2023-03-24T04:54:33;16.10;99.90
20288;DHT22;10303;51.960;8.372;2023-03-24T04:57:04;16.10;99.90
20288;DHT22;10303;51.960;8.372;2023-03-24T04:59:42;16.00;99.90
20288;DHT22;10303;51.960;8.372;2023-03-24T05:02:09;16.10;99.90
20288;DHT22;10303;51.960;8.372;2023-03-24T05:04:47;16.10;99.90
20288;DHT22;10303;51.960;8.372;2023-03-24T05:07:17;16.10;99.90
20288;DHT22;10303;51.960;8.372;2023-03-24T05:09:46;16.10;99.90
20288;DHT22;10303;51.960;8.372;2023-03-24T05:12:12;16.10;99.90
20288;DHT22;10303;51.960;8.372;2023-03-24T05:14:57;16.10;99.90
20288;DHT22;10303;51.960;8.372;2023-03-24T05:17:22;16.20;99.90
20288;DHT22;10303;51.960;8.372;2023-03-24T05:19:49;16.20;99.90
20288;DHT22;10303;51.960;8.372;2023-03-24T05:22:15;16.20;99.90
20288;DHT22;10303;51.960;8.372;2023-03-24T05:24:40;16.20;99.90
20288;DHT22;10303;51.960;8.372;2023-03-24T05:27:06;16.10;99.90
20288;DHT22;10303;51.960;8.372;2023-03-24T05:29:32;16.00;99.90
20288;DHT22;10303;51.960;8.372;2023-03-24T05:31:58;16.10;99.90
20288;DHT22;10303;51.960;8.372;2023-03-24T05:34:25;16.10;99.90
20288;DHT22;10303;51.960;8.372;2023-03-24T05:37:10;16.00;99.90
20288;DHT22;10303;51.960;8.372;2023-03-24T05:39:38;16.10;99.90
20288;DHT22;10303;51.960;8.372;2023-03-24T05:42:09;16.20;99.90
20288;DHT22;10303;51.960;8.372;2023-03-24T05:44:35;16.20;99.90
20288;DHT22;10303;51.960;8.372;2023-03-24T05:47:14;15.90;99.90
20288;DHT22;10303;51.960;8.372;2023-03-24T05:49:45;15.90;99.90
20288;DHT22;10303;51.960;8.372;2023-03-24T05:52:12;15.70;99.90
20288;DHT22;10303;51.960;8.372;2023-03-24T05:54:43;15.50;99.90
20288;DHT22;10303;51.960;8.372;2023-03-24T05:57:24;15.00;99.90
20288;DHT22;10303;51.960;8.372;2023-03-24T06:00:13;15.20;99.90
20288;DHT22;10303;51.960;8.372;2023-03-24T06:02:58;15.10;99.90
20288;DHT22;10303;51.960;8.372;2023-03-24T06:05:45;15.30;99.90
20288;DHT22;10303;51.960;8.372;2023-03-24T06:08:13;15.30;99.90
20288;DHT22;10303;51.960;8.372;2023-03-24T06:10:39;15.40;99.90
20288;DHT22;10303;51.960;8.372;2023-03-24T06:13:05;15.30;99.90
20288;DHT22;10303;51.960;8.372;2023-03-24T06:15:34;15.00;99.90
20288;DHT22;10303;51.960;8.372;2023-03-24T06:18:16;15.20;99.90
20288;DHT22;10303;51.960;8.372;2023-03-24T06:20:42;14.50;99.90
20288;DHT22;10303;51.960;8.372;2023-03-24T06:23:16;14.30;99.90
20288;DHT22;10303;51.960;8.372;2023-03-24T06:26:12;13.90;99.90
20288;DHT22;10303;51.960;8.372;2023-03-24T06:28:48;13.30;99.90
20288;DHT22;10303;51.960;8.372;2023-03-24T06:31:18;13.10;99.90
20288;DHT22;10303;51.960;8.372;2023-03-24T06:33:47;13.10;99.90
20288;DHT22;10303;51.960;8.372;2023-03-24T06:36:14;13.10;99.90
20288;DHT22;10303;51.960;8.372;2023-03-24T06:38:43;13.00;99.90
20288;DHT22;10303;51.960;8.372;2023-03-24T06:41:13;13.00;99.90
20288;DHT22;10303;51.960;8.372;2023-03-24T06:43:40;13.10;99.90
20288;DHT22;10303;51.960;8.372;2023-03-24T06:46:06;13.10;99.90
20288;DHT22;10303;51.960;8.372;2023-03-24T06:48:33;12.80;99.90
20288;DHT22;10303;51.960;8.372;2023-03-24T06:51:04;12.80;99.90
20288;DHT22;10303;51.960;8.372;2023-03-24T06:53:30;12.80;99.90
20288;DHT22;10303;51.960;8.372;2023-03-24T06:55:56;12.60;99.90
20288;DHT22;10303;51.960;8.372;2023-03-24T06:58:25;12.60;99.90
20288;DHT22;10303;51.960;8.372;2023-03-24T07:00:59;12.20;99.90
20288;DHT22;10303;51.960;8.372;2023-03-24T07:03:35;12.00;99.90
20288;DHT22;10303;51.960;8.372;2023-03-24T07:06:16;11.90;99.90
20288;DHT22;10303;51.960;8.372;2023-03-24T07:08:46;11.70;99.90
20288;DHT22;10303;51.960;8.372;2023-03-24T07:11:13;11.80;99.90
20288;DHT22;10303;51.960;8.372;2023-03-24T07:13:47;11.50;99.90
20288;DHT22;10303;51.960;8.372;2023-03-24T07:16:15;11.50;99.90
20288;DHT22;10303;51.960;8.372;2023-03-24T07:18:41;11.40;99.90
20288;DHT22;10303;51.960;8.372;2023-03-24T07:21:07;11.30;99.90
20288;DHT22;10303;51.960;8.372;2023-03-24T07:23:35;11.50;99.90
20288;DHT22;10303;51.960;8.372;2023-03-24T07:26:09;11.40;99.90
20288;DHT22;10303;51.960;8.372;2023-03-24T07:28:35;11.40;99.90
20288;DHT22;10303;51.960;8.372;2023-03-24T07:31:05;11.40;99.90
20288;DHT22;10303;51.960;8.372;2023-03-24T07:33:36;11.30;99.90
20288;DHT22;10303;51.960;8.372;2023-03-24T07:36:06;11.50;99.90
20288;DHT22;10303;51.960;8.372;2023-03-24T07:38:35;11.60;99.90
20288;DHT22;10303;51.960;8.372;2023-03-24T07:41:05;11.70;99.90
20288;DHT22;10303;51.960;8.372;2023-03-24T07:43:34;12.00;99.90
20288;DHT22;10303;51.960;8.372;2023-03-24T07:46:06;12.00;99.90
20288;DHT22;10303;51.960;8.372;2023-03-24T07:48:33;12.20;99.90
20288;DHT22;10303;51.960;8.372;2023-03-24T07:50:59;12.20;99.90
20288;DHT22;10303;51.960;8.372;2023-03-24T07:53:48;12.10;99.90
20288;DHT22;10303;51.960;8.372;2023-03-24T07:56:24;12.20;99.90
20288;DHT22;10303;51.960;8.372;2023-03-24T07:58:53;12.30;99.90
20288;DHT22;10303;51.960;8.372;2023-03-24T08:01:28;12.40;99.90
20288;DHT22;10303;51.960;8.372;2023-03-24T08:04:00;12.30;99.90
20288;DHT22;10303;51.960;8.372;2023-03-24T08:06:45;12.40;99.90
20288;DHT22;10303;51.960;8.372;2023-03-24T08:09:11;12.60;99.90
20288;DHT22;10303;51.960;8.372;2023-03-24T08:11:39;12.40;99.90
20288;DHT22;10303;51.960;8.372;2023-03-24T08:14:06;12.30;99.90
20288;DHT22;10303;51.960;8.372;2023-03-24T08:16:32;12.60;99.90
20288;DHT22;10303;51.960;8.372;2023-03-24T08:18:58;12.80;99.90
20288;DHT22;10303;51.960;8.372;2023-03-24T08:21:25;12.60;99.90
20288;DHT22;10303;51.960;8.372;2023-03-24T08:23:51;13.00;99.90
20288;DHT22;10303;51.960;8.372;2023-03-24T08:26:17;12.30;99.90
20288;DHT22;10303;51.960;8.372;2023-03-24T08:28:43;12.50;99.90
20288;DHT22;10303;51.960;8.372;2023-03-24T08:31:10;12.50;99.90
20288;DHT22;10303;51.960;8.372;2023-03-24T08:33:36;12.60;99.90
20288;DHT22;10303;51.960;8.372;2023-03-24T08:36:02;13.00;99.90
20288;DHT22;10303;51.960;8.372;2023-03-24T08:38:29;13.10;99.90
20288;DHT22;10303;51.960;8.372;2023-03-24T08:40:59;12.80;99.90
20288;DHT22;10303;51.960;8.372;2023-03-24T08:43:32;13.10;99.90
20288;DHT22;10303;51.960;8.372;2023-03-24T08:46:00;13.40;99.90
20288;DHT22;10303;51.960;8.372;2023-03-24T08:48:28;12.80;99.90
20288;DHT22;10303;51.960;8.372;2023-03-24T08:50:56;13.00;99.90
20288;DHT22;10303;51.960;8.372;2023-03-24T08:53:22;13.20;99.90
20288;DHT22;10303;51.960;8.372;2023-03-24T08:55:48;13.60;99.90
20288;DHT22;10303;51.960;8.372;2023-03-24T08:58:17;13.70;99.90
20288;DHT22;10303;51.960;8.372;2023-03-24T09:00:45;13.80;99.90
20288;DHT22;10303;51.960;8.372;2023-03-24T09:03:15;14.00;99.90
20288;DHT22;10303;51.960;8.372;2023-03-24T09:05:45;14.10;99.90
20288;DHT22;10303;51.960;8.372;2023-03-24T09:08:14;13.70;99.90
20288;DHT22;10303;51.960;8.372;2023-03-24T09:10:42;13.90;99.90
20288;DHT22;10303;51.960;8.372;2023-03-24T09:13:08;13.80;99.90
20288;DHT22;10303;51.960;8.372;2023-03-24T09:15:35;13.90;99.90
20288;DHT22;10303;51.960;8.372;2023-03-24T09:18:01;14.00;99.90
20288;DHT22;10303;51.960;8.372;2023-03-24T09:20:27;14.10;99.90
20288;DHT22;10303;51.960;8.372;2023-03-24T09:22:53;13.70;99.90
20288;DHT22;10303;51.960;8.372;2023-03-24T09:25:20;14.10;99.90
20288;DHT22;10303;51.960;8.372;2023-03-24T09:27:47;14.20;99.90
20288;DHT22;10303;51.960;8.372;2023-03-24T09:30:15;14.30;99.90
20288;DHT22;10303;51.960;8.372;2023-03-24T09:32:45;14.60;99.90
20288;DHT22;10303;51.960;8.372;2023-03-24T09:35:11;14.90;99.90
20288;DHT22;10303;51.960;8.372;2023-03-24T09:37:39;14.70;99.90
20288;DHT22;10303;51.960;8.372;2023-03-24T09:40:09;14.70;99.90
20288;DHT22;10303;51.960;8.372;2023-03-24T09:42:49;14.90;99.90
20288;DHT22;10303;51.960;8.372;2023-03-24T09:45:26;15.10;99.90
20288;DHT22;10303;51.960;8.372;2023-03-24T09:48:20;14.80;99.90
20288;DHT22;10303;51.960;8.372;2023-03-24T09:50:59;14.80;99.90
20288;DHT22;10303;51.960;8.372;2023-03-24T09:53:45;15.00;99.90
20288;DHT22;10303;51.960;8.372;2023-03-24T09:56:19;14.80;99.90
20288;DHT22;10303;51.960;8.372;2023-03-24T09:59:02;15.00;99.90
20288;DHT22;10303;51.960;8.372;2023-03-24T10:01:30;14.80;99.90
20288;DHT22;10303;51.960;8.372;2023-03-24T10:03:59;14.50;99.90
20288;DHT22;10303;51.960;8.372;2023-03-24T10:06:29;14.20;99.90
20288;DHT22;10303;51.960;8.372;2023-03-24T10:09:30;14.50;99.90
20288;DHT22;10303;51.960;8.372;2023-03-24T10:17:56;14.90;99.90
20288;DHT22;10303;51.960;8.372;2023-03-24T10:21:05;14.20;99.90
20288;DHT22;10303;51.960;8.372;2023-03-24T10:24:09;14.10;99.90
20288;DHT22;10303;51.960;8.372;2023-03-24T10:27:02;13.90;99.90
20288;DHT22;10303;51.960;8.372;2023-03-24T10:29:35;14.50;99.90
20288;DHT22;10303;51.960;8.372;2023-03-24T10:32:15;14.60;99.90
20288;DHT22;10303;51.960;8.372;2023-03-24T10:34:51;14.90;99.90
20288;DHT22;10303;51.960;8.372;2023-03-24T10:37:23;14.60;99.90
20288;DHT22;10303;51.960;8.372;2023-03-24T10:39:49;14.60;99.90
20288;DHT22;10303;51.960;8.372;2023-03-24T10:42:24;15.00;99.90
20288;DHT22;10303;51.960;8.372;2023-03-24T10:44:53;15.00;99.90
20288;DHT22;10303;51.960;8.372;2023-03-24T10:47:24;14.70;99.90
20288;DHT22;10303;51.960;8.372;2023-03-24T10:49:56;14.10;99.90
20288;DHT22;10303;51.960;8.372;2023-03-24T10:52:25;13.80;99.90
20288;DHT22;10303;51.960;8.372;2023-03-24T10:54:59;14.00;99.90
20288;DHT22;10303;51.960;8.372;2023-03-24T10:57:29;13.70;99.90
20288;DHT22;10303;51.960;8.372;2023-03-24T11:00:04;13.80;99.90
20288;DHT22;10303;51.960;8.372;2023-03-24T11:02:35;14.00;99.90
20288;DHT22;10303;51.960;8.372;2023-03-24T11:05:19;14.00;99.90
20288;DHT22;10303;51.960;8.372;2023-03-24T11:07:49;14.00;99.90
20288;DHT22;10303;51.960;8.372;2023-03-24T11:10:26;14.20;99.90
20288;DHT22;10303;51.960;8.372;2023-03-24T11:15:25;14.60;99.90
20288;DHT22;10303;51.960;8.372;2023-03-24T11:17:58;14.00;99.90
20288;DHT22;10303;51.960;8.372;2023-03-24T11:20:35;14.30;99.90
20288;DHT22;10303;51.960;8.372;2023-03-24T11:23:18;14.10;99.90
20288;DHT22;10303;51.960;8.372;2023-03-24T11:28:56;14.70;99.90
20288;DHT22;10303;51.960;8.372;2023-03-24T11:31:33;14.80;99.90
20288;DHT22;10303;51.960;8.372;2023-03-24T11:34:23;15.20;99.90
20288;DHT22;10303;51.960;8.372;2023-03-24T11:36:57;15.10;99.90
20288;DHT22;10303;51.960;8.372;2023-03-24T11:39:28;15.20;99.90
20288;DHT22;10303;51.960;8.372;2023-03-24T11:47:20;15.50;99.90
20288;DHT22;10303;51.960;8.372;2023-03-24T11:55:15;16.10;99.90
20288;DHT22;10303;51.960;8.372;2023-03-24T12:00:59;16.00;99.90
20288;DHT22;10303;51.960;8.372;2023-03-24T12:07:06;16.50;99.90
20288;DHT22;10303;51.960;8.372;2023-03-24T12:15:54;17.10;99.90
20288;DHT22;10303;51.960;8.372;2023-03-24T12:21:35;17.30;99.90
20288;DHT22;10303;51.960;8.372;2023-03-24T12:36:51;17.40;99.90
20288;DHT22;10303;51.960;8.372;2023-03-24T12:39:39;17.60;99.90
20288;DHT22;10303;51.960;8.372;2023-03-24T12:42:19;17.60;99.90
20288;DHT22;10303;51.960;8.372;2023-03-24T12:45:05;16.10;99.90
20288;DHT22;10303;51.960;8.372;2023-03-24T12:48:10;16.30;99.90
20288;DHT22;10303;51.960;8.372;2023-03-24T12:54:23;16.80;99.90
20288;DHT22;10303;51.960;8.372;2023-03-24T12:57:11;17.20;99.90
20288;DHT22;10303;51.960;8.372;2023-03-24T12:59:45;17.40;99.90
20288;DHT22;10303;51.960;8.372;2023-03-24T13:05:06;16.80;99.90
20288;DHT22;10303;51.960;8.372;2023-03-24T13:07:41;16.10;99.90
20288;DHT22;10303;51.960;8.372;2023-03-24T13:10:16;16.40;99.90
20288;DHT22;10303;51.960;8.372;2023-03-24T13:15:48;16.70;99.90
20288;DHT22;10303;51.960;8.372;2023-03-24T13:18:28;16.20;99.90
20288;DHT22;10303;51.960;8.372;2023-03-24T13:21:03;16.10;99.90
20288;DHT22;10303;51.960;8.372;2023-03-24T13:23:55;16.10;99.90
20288;DHT22;10303;51.960;8.372;2023-03-24T13:34:59;16.30;99.90
20288;DHT22;10303;51.960;8.372;2023-03-24T13:37:38;15.90;99.90
20288;DHT22;10303;51.960;8.372;2023-03-24T13:40:28;16.30;99.90
20288;DHT22;10303;51.960;8.372;2023-03-24T13:43:23;16.00;99.90
20288;DHT22;10303;51.960;8.372;2023-03-24T13:46:01;16.00;99.90
20288;DHT22;10303;51.960;8.372;2023-03-24T13:48:41;16.10;99.90
20288;DHT22;10303;51.960;8.372;2023-03-24T13:51:18;16.10;99.90
20288;DHT22;10303;51.960;8.372;2023-03-24T13:54:18;16.30;99.90
20288;DHT22;10303;51.960;8.372;2023-03-24T13:57:07;16.50;99.90
20288;DHT22;10303;51.960;8.372;2023-03-24T14:00:00;16.30;99.90
20288;DHT22;10303;51.960;8.372;2023-03-24T14:10:42;16.50;99.90
20288;DHT22;10303;51.960;8.372;2023-03-24T14:15:44;16.80;99.90
20288;DHT22;10303;51.960;8.372;2023-03-24T14:23:25;16.80;99.90
20288;DHT22;10303;51.960;8.372;2023-03-24T14:25:57;17.00;99.90
20288;DHT22;10303;51.960;8.372;2023-03-24T14:28:30;16.80;99.90
20288;DHT22;10303;51.960;8.372;2023-03-24T14:34:17;17.00;99.90
20288;DHT22;10303;51.960;8.372;2023-03-24T14:36:45;17.30;99.90
20288;DHT22;10303;51.960;8.372;2023-03-24T14:39:40;16.80;99.90
20288;DHT22;10303;51.960;8.372;2023-03-24T14:42:26;16.50;99.90
20288;DHT22;10303;51.960;8.372;2023-03-24T14:45:03;16.80;99.90
20288;DHT22;10303;51.960;8.372;2023-03-24T14:47:32;16.80;99.90
20288;DHT22;10303;51.960;8.372;2023-03-24T14:50:18;16.90;99.90
20288;DHT22;10303;51.960;8.372;2023-03-24T14:52:52;16.80;99.90
20288;DHT22;10303;51.960;8.372;2023-03-24T14:55:28;17.10;99.90
20288;DHT22;10303;51.960;8.372;2023-03-24T14:58:35;17.30;99.90
20288;DHT22;10303;51.960;8.372;2023-03-24T15:01:08;17.30;99.90
20288;DHT22;10303;51.960;8.372;2023-03-24T15:06:20;17.30;99.90
20288;DHT22;10303;51.960;8.372;2023-03-24T15:08:49;17.40;99.90
20288;DHT22;10303;51.960;8.372;2023-03-24T15:11:38;17.30;99.90
20288;DHT22;10303;51.960;8.372;2023-03-24T15:14:20;15.40;99.90
20288;DHT22;10303;51.960;8.372;2023-03-24T15:17:05;14.90;99.90
20288;DHT22;10303;51.960;8.372;2023-03-24T15:19:40;14.20;99.90
20288;DHT22;10303;51.960;8.372;2023-03-24T15:22:11;13.70;99.90
20288;DHT22;10303;51.960;8.372;2023-03-24T15:24:41;12.90;99.90
20288;DHT22;10303;51.960;8.372;2023-03-24T15:29:34;12.60;99.90
20288;DHT22;10303;51.960;8.372;2023-03-24T15:32:03;12.80;99.90
20288;DHT22;10303;51.960;8.372;2023-03-24T15:34:35;12.20;99.90
20288;DHT22;10303;51.960;8.372;2023-03-24T15:37:06;12.30;99.90
20288;DHT22;10303;51.960;8.372;2023-03-24T15:39:49;12.20;99.90
20288;DHT22;10303;51.960;8.372;2023-03-24T15:42:20;12.30;99.90
20288;DHT22;10303;51.960;8.372;2023-03-24T15:44:49;12.40;99.90
20288;DHT22;10303;51.960;8.372;2023-03-24T15:47:30;12.50;99.90
20288;DHT22;10303;51.960;8.372;2023-03-24T15:50:01;12.50;99.90
20288;DHT22;10303;51.960;8.372;2023-03-24T15:52:34;12.60;99.90
20288;DHT22;10303;51.960;8.372;2023-03-24T15:55:34;12.60;99.90
20288;DHT22;10303;51.960;8.372;2023-03-24T15:58:22;12.60;99.90
20288;DHT22;10303;51.960;8.372;2023-03-24T16:00:51;12.80;99.90
20288;DHT22;10303;51.960;8.372;2023-03-24T16:03:21;13.00;99.90
20288;DHT22;10303;51.960;8.372;2023-03-24T16:05:52;13.00;99.90
20288;DHT22;10303;51.960;8.372;2023-03-24T16:11:11;13.50;99.90
20288;DHT22;10303;51.960;8.372;2023-03-24T16:13:40;13.60;99.90
20288;DHT22;10303;51.960;8.372;2023-03-24T16:18:44;13.70;99.90
20288;DHT22;10303;51.960;8.372;2023-03-24T16:21:20;13.80;99.90
20288;DHT22;10303;51.960;8.372;2023-03-24T16:23:49;14.00;99.90
20288;DHT22;10303;51.960;8.372;2023-03-24T16:26:37;14.10;99.90
20288;DHT22;10303;51.960;8.372;2023-03-24T16:31:38;14.30;99.90
20288;DHT22;10303;51.960;8.372;2023-03-24T16:34:04;14.40;99.90
20288;DHT22;10303;51.960;8.372;2023-03-24T16:36:30;14.50;99.90
20288;DHT22;10303;51.960;8.372;2023-03-24T16:38:57;14.50;99.90
20288;DHT22;10303;51.960;8.372;2023-03-24T16:41:25;14.50;99.90
20288;DHT22;10303;51.960;8.372;2023-03-24T16:43:52;14.20;99.90
20288;DHT22;10303;51.960;8.372;2023-03-24T16:46:30;14.20;99.90
20288;DHT22;10303;51.960;8.372;2023-03-24T16:48:58;14.30;99.90
20288;DHT22;10303;51.960;8.372;2023-03-24T16:51:25;14.30;99.90
20288;DHT22;10303;51.960;8.372;2023-03-24T16:53:51;14.30;99.90
20288;DHT22;10303;51.960;8.372;2023-03-24T16:56:19;13.90;99.90
20288;DHT22;10303;51.960;8.372;2023-03-24T16:58:46;14.00;99.90
20288;DHT22;10303;51.960;8.372;2023-03-24T17:01:37;14.20;99.90
20288;DHT22;10303;51.960;8.372;2023-03-24T17:04:07;14.20;99.90
20288;DHT22;10303;51.960;8.372;2023-03-24T17:06:38;14.30;99.90
20288;DHT22;10303;51.960;8.372;2023-03-24T17:09:06;14.30;99.90
20288;DHT22;10303;51.960;8.372;2023-03-24T17:11:44;14.40;99.90
20288;DHT22;10303;51.960;8.372;2023-03-24T17:14:16;14.50;99.90
20288;DHT22;10303;51.960;8.372;2023-03-24T17:16:44;14.50;99.90
20288;DHT22;10303;51.960;8.372;2023-03-24T17:19:14;14.50;99.90
20288;DHT22;10303;51.960;8.372;2023-03-24T17:21:49;14.50;99.90
20288;DHT22;10303;51.960;8.372;2023-03-24T17:24:34;14.50;99.90
20288;DHT22;10303;51.960;8.372;2023-03-24T17:27:01;14.50;99.90
20288;DHT22;10303;51.960;8.372;2023-03-24T17:29:27;14.60;99.90
20288;DHT22;10303;51.960;8.372;2023-03-24T17:31:54;14.60;99.90
20288;DHT22;10303;51.960;8.372;2023-03-24T17:34:20;14.60;99.90
20288;DHT22;10303;51.960;8.372;2023-03-24T17:36:48;14.60;99.90
20288;DHT22;10303;51.960;8.372;2023-03-24T17:39:15;14.60;99.90
20288;DHT22;10303;51.960;8.372;2023-03-24T17:41:42;14.60;99.90
20288;DHT22;10303;51.960;8.372;2023-03-24T17:44:08;14.60;99.90
20288;DHT22;10303;51.960;8.372;2023-03-24T17:46:34;14.60;99.90
20288;DHT22;10303;51.960;8.372;2023-03-24T17:49:00;14.70;99.90
20288;DHT22;10303;51.960;8.372;2023-03-24T17:51:26;14.70;99.90
20288;DHT22;10303;51.960;8.372;2023-03-24T17:53:52;14.60;99.90
20288;DHT22;10303;51.960;8.372;2023-03-24T17:56:20;14.60;99.90
20288;DHT22;10303;51.960;8.372;2023-03-24T17:58:46;14.70;99.90
20288;DHT22;10303;51.960;8.372;2023-03-24T18:01:13;14.60;99.90
20288;DHT22;10303;51.960;8.372;2023-03-24T18:03:42;14.60;99.90
20288;DHT22;10303;51.960;8.372;2023-03-24T18:06:10;14.60;99.90
20288;DHT22;10303;51.960;8.372;2023-03-24T18:08:38;14.60;99.90
20288;DHT22;10303;51.960;8.372;2023-03-24T18:11:09;14.60;99.90
20288;DHT22;10303;51.960;8.372;2023-03-24T18:13:37;14.50;99.90
20288;DHT22;10303;51.960;8.372;2023-03-24T18:16:04;14.50;99.90
20288;DHT22;10303;51.960;8.372;2023-03-24T18:18:35;14.50;99.90
20288;DHT22;10303;51.960;8.372;2023-03-24T18:21:06;14.50;99.90
20288;DHT22;10303;51.960;8.372;2023-03-24T18:23:33;14.40;99.90
20288;DHT22;10303;51.960;8.372;2023-03-24T18:26:02;14.40;99.90
20288;DHT22;10303;51.960;8.372;2023-03-24T18:28:36;14.30;99.90
20288;DHT22;10303;51.960;8.372;2023-03-24T18:31:13;14.40;99.90
20288;DHT22;10303;51.960;8.372;2023-03-24T18:33:43;14.30;99.90
20288;DHT22;10303;51.960;8.372;2023-03-24T18:36:11;14.30;99.90
20288;DHT22;10303;51.960;8.372;2023-03-24T18:38:43;14.30;99.90
20288;DHT22;10303;51.960;8.372;2023-03-24T18:41:11;14.40;99.90
20288;DHT22;10303;51.960;8.372;2023-03-24T18:43:39;14.40;99.90
20288;DHT22;10303;51.960;8.372;2023-03-24T18:46:13;14.30;99.90
20288;DHT22;10303;51.960;8.372;2023-03-24T18:48:41;14.30;99.90
20288;DHT22;10303;51.960;8.372;2023-03-24T18:51:08;14.20;99.90
20288;DHT22;10303;51.960;8.372;2023-03-24T18:53:36;14.30;99.90